< < Back
Terminal Aerodrome Forecast


Current Version              Previous Versions:   1  2  3  4  5  6  7  8  9  

Terminal Aerodrome Forecast

782
FTUS44 KMOB 231700
TAFPNS
TAF
KPNS 231733Z 2318/2418 02007KT P6SM SCT035
     FM232100 20009KT P6SM FEW035
     FM240600 00000KT 4SM BR SKC
      TEMPO 2409/2412 1SM BR
     FM241300 12004KT P6SM FEW040 SCT250=

Latest METAR

123
SAUS70 KWBC 231800 RRF
MTRPNS
METAR KPNS 231753Z 31004KT 10SM SCT042 28/15 A2993 RMK AO2 SLP136
T02780150 10278 20178 58014


USA.gov is the U.S. government's official web portal to all federal, state and local government web resources and services.